Agua Escondida, Argentina
Current Conditions -  °F | °C
As of 2:00 PM on Friday 21 Nov 2014 (Local Time) from SCIC Reporting Station
Few Clouds Few Clouds  
Wind Chill: 77°   Ceiling: Unl
Heat Index: 77°   Visibility: 6mi
Dew Point: 39°   Wind: 7mph
Humidity: 26%   Direction: 210°SSW
Pressure: 30.03"   Gusts: NA
Location:  35.64°S, 67.97°W
Report Text: SCIC 211700Z 21006KT 9999 FEW040 25/04 Q1017
Loading
Personal Weather Stations






























Interactive Weather Map New forecast layout! Learn more

10-Day Weather Forecast

Advertisements
Track Severe Weather on mobile